ADDS METAR Data INFO
IDs: Format: Raw Decoded Include TAF

Data at: 0946 UTC 19 Jul 2018

METAR for:KEDJ (Bellefontaine Rgnl, OH, US)
Text:KEDJ 190935Z AUTO 13006KT 10SM CLR 17/09 A3008 RMK AO1
Temperature: 17.0°C ( 63°F)
Dewpoint: 9.0°C ( 48°F) [RH = 59%]
Pressure (altimeter):30.08 inches Hg (1018.7 mb)
Winds:from the SE (130 degrees) at 7 MPH (6 knots; 3.1 m/s)
Visibility:10 or more sm (16+ km)
Ceiling:at least 12,000 feet AGL
Clouds:sky clear below 12,000 feet AGL
QC Flag:automated observation with no human augmentation